Time;durP1;ratioP1;P1;durP2;ratioP2;P2;SDS_P1;SDS_P2;PMS_P1;PMS_P2;Temp;Humidity;BMP_temperature;BMP_pressure;BME280_temperature;BME280_humidity;BME280_pressure;Samples;Min_cycle;Max_cycle;Signal;HPM_P1;HPM_P2
2023/11/29 00:00:37;;;;;;;36.50;22.50;;;;;;;;;;103596;1299;549142;-75
2023/11/29 00:08:26;;;;;;;;;;;;;;;;;;;;;
2023/11/29 00:15:28;;;;;;;34.20;20.50;;;;;;;;;;103641;1291;547929;-74
2023/11/29 00:18:58;;;;;;;31.40;19.60;;;;;;;;;;103725;1295;545318;-75
2023/11/29 00:33:57;;;;;;;35.30;22.30;;;;;;;;;;103693;1292;548239;-75
2023/11/29 00:37:29;;;;;;;34.20;20.80;;;;;;;;;;104085;1285;544703;-74
2023/11/29 00:41:02;;;;;;;33.90;20.00;;;;;;;;;;103766;1293;545691;-76
2023/11/29 00:44:40;;;;;;;34.90;21.70;;;;;;;;;;104033;1287;544797;-75
2023/11/29 00:48:22;;;;;;;36.30;23.00;;;;;;;;;;103621;1294;545310;-75
2023/11/29 00:51:56;;;;;;;37.40;23.30;;;;;;;;;;103850;1291;544994;-75
2023/11/29 00:55:35;;;;;;;36.00;22.60;;;;;;;;;;104276;1285;545831;-75
2023/11/29 00:59:14;;;;;;;32.10;20.00;;;;;;;;;;103964;1292;545001;-74
2023/11/29 01:02:48;;;;;;;33.50;19.20;;;;;;;;;;103820;1289;545086;-73
2023/11/29 01:06:26;;;;;;;33.90;20.70;;;;;;;;;;104030;1288;544842;-74
2023/11/29 01:10:06;;;;;;;41.60;25.10;;;;;;;;;;103646;1295;545288;-75
2023/11/29 01:13:41;;;;;;;52.10;30.90;;;;;;;;;;103499;1294;545119;-75
2023/11/29 01:17:18;;;;;;;55.30;29.90;;;;;;;;;;103801;1303;544873;-74
2023/11/29 01:21:04;;;;;;;53.30;31.00;;;;;;;;;;103748;1292;546021;-74
2023/11/29 01:24:39;;;;;;;55.10;29.80;;;;;;;;;;103752;1295;545005;-74
2023/11/29 01:28:12;;;;;;;55.80;30.70;;;;;;;;;;103740;1295;545127;-73
2023/11/29 01:31:53;;;;;;;60.50;33.70;;;;;;;;;;103673;1291;545035;-73
2023/11/29 01:35:27;;;;;;;62.10;33.70;;;;;;;;;;103636;1292;545825;-74
2023/11/29 01:39:13;;;;;;;57.10;29.90;;;;;;;;;;103602;1292;545129;-74
2023/11/29 01:42:45;;;;;;;52.50;31.00;;;;;;;;;;103688;1292;545074;-74
2023/11/29 01:46:19;;;;;;;47.80;28.40;;;;;;;;;;103610;1292;546091;-74
2023/11/29 01:49:58;;;;;;;49.50;30.10;;;;;;;;;;103671;1292;545061;-74
2023/11/29 01:53:34;;;;;;;55.80;31.00;;;;;;;;;;103675;1298;545787;-74
2023/11/29 01:57:12;;;;;;;55.70;31.60;;;;;;;;;;103821;1295;544999;-74
2023/11/29 02:00:48;;;;;;;46.60;26.00;;;;;;;;;;103608;1292;545136;-73
2023/11/29 02:04:26;;;;;;;42.80;23.00;;;;;;;;;;103731;1291;544837;-74
2023/11/29 02:08:04;;;;;;;40.00;23.70;;;;;;;;;;103585;1298;544893;-74
2023/11/29 02:11:48;;;;;;;44.80;25.90;;;;;;;;;;103628;1295;544750;-75
2023/11/29 02:15:17;;;;;;;51.30;28.70;;;;;;;;;;103532;1293;545039;-75
2023/11/29 02:19:03;;;;;;;50.20;27.00;;;;;;;;;;104070;1286;544919;-74
2023/11/29 02:22:38;;;;;;;29.10;16.90;;;;;;;;;;103774;1291;544936;-75
2023/11/29 02:26:21;;;;;;;;;;;;;;;;;;;;;
2023/11/29 02:30:07;;;;;;;32.10;19.30;;;;;;;;;;103618;1294;545156;-74
2023/11/29 02:33:28;;;;;;;27.60;17.00;;;;;;;;;;103917;1288;545407;-75
2023/11/29 02:37:03;;;;;;;28.70;17.90;;;;;;;;;;103875;1289;544810;-74
2023/11/29 02:40:40;;;;;;;36.40;21.10;;;;;;;;;;103644;1292;545421;-74
2023/11/29 02:44:17;;;;;;;38.20;21.00;;;;;;;;;;103920;1288;545042;-74
2023/11/29 02:48:03;;;;;;;41.00;22.20;;;;;;;;;;103803;1288;547779;-75
2023/11/29 02:51:32;;;;;;;39.70;22.20;;;;;;;;;;103841;1291;544974;-75
2023/11/29 02:55:23;;;;;;;41.80;23.90;;;;;;;;;;103426;1295;545119;-74
2023/11/29 02:58:47;;;;;;;36.30;20.60;;;;;;;;;;103569;1295;545096;-74
2023/11/29 03:02:44;;;;;;;36.40;20.40;;;;;;;;;;103783;1292;545952;-75
2023/11/29 03:06:04;;;;;;;39.30;22.90;;;;;;;;;;103702;1294;544800;-75
2023/11/29 03:09:52;;;;;;;38.30;23.20;;;;;;;;;;103854;1290;545221;-74
2023/11/29 03:13:17;;;;;;;42.90;23.30;;;;;;;;;;103856;1291;545622;-74
2023/11/29 03:16:56;;;;;;;42.40;23.10;;;;;;;;;;103694;1295;545790;-75
2023/11/29 03:20:34;;;;;;;44.30;24.60;;;;;;;;;;103783;1291;544571;-75
2023/11/29 03:24:12;;;;;;;44.70;24.80;;;;;;;;;;103702;1290;545145;-75
2023/11/29 03:27:58;;;;;;;;;;;;;;;;;;;;;
2023/11/29 03:31:26;;;;;;;43.80;24.80;;;;;;;;;;103768;1290;545810;-74
2023/11/29 03:35:15;;;;;;;43.80;24.50;;;;;;;;;;103946;1290;545542;-75
2023/11/29 03:38:38;;;;;;;45.60;25.60;;;;;;;;;;103812;1292;545342;-74
2023/11/29 03:42:30;;;;;;;46.20;25.70;;;;;;;;;;103698;1289;544791;-74
2023/11/29 03:46:01;;;;;;;41.70;24.30;;;;;;;;;;103716;1292;545186;-75
2023/11/29 03:49:34;;;;;;;40.50;22.30;;;;;;;;;;103981;1289;545372;-76
2023/11/29 03:53:21;;;;;;;;;;;;;;;;;;;;;
2023/11/29 03:57:11;;;;;;;;;;;;;;;;;;;;;
2023/11/29 04:00:25;;;;;;;24.70;9.90;;;;;;;;;;103528;1293;545035;-75
2023/11/29 04:04:10;;;;;;;46.70;26.30;;;;;;;;;;103623;1291;545821;-75
2023/11/29 04:07:37;;;;;;;52.10;28.50;;;;;;;;;;103866;1289;545017;-74
2023/11/29 04:11:23;;;;;;;41.30;14.20;;;;;;;;;;103820;1294;545846;-77
2023/11/29 04:14:56;;;;;;;51.40;29.80;;;;;;;;;;103732;1303;544818;-75
2023/11/29 04:18:34;;;;;;;51.70;29.50;;;;;;;;;;103779;1289;544893;-75
2023/11/29 04:22:13;;;;;;;50.40;27.70;;;;;;;;;;103459;1294;544952;-74
2023/11/29 04:25:51;;;;;;;39.20;14.20;;;;;;;;;;103636;1293;545681;-74
2023/11/29 04:29:23;;;;;;;57.10;29.50;;;;;;;;;;103771;1291;545465;-75
2023/11/29 04:33:02;;;;;;;53.90;29.70;;;;;;;;;;103708;1292;545789;-75
2023/11/29 04:36:39;;;;;;;42.90;15.20;;;;;;;;;;103807;1292;545414;-75
2023/11/29 04:40:15;;;;;;;72.20;40.30;;;;;;;;;;103406;1298;545062;-74
2023/11/29 04:44:17;;;;;;;72.00;40.00;;;;;;;;;;103740;1295;546182;-75
2023/11/29 04:47:35;;;;;;;51.90;17.10;;;;;;;;;;103700;1292;544981;-75
2023/11/29 04:51:21;;;;;;;42.50;24.00;;;;;;;;;;103443;1291;547933;-74
2023/11/29 04:54:45;;;;;;;44.60;23.60;;;;;;;;;;103753;1289;546021;-75
2023/11/29 04:58:53;;;;;;;;;;;;;;;;;;;;;
2023/11/29 05:02:15;;;;;;;;;;;;;;;;;;;;;
2023/11/29 05:05:38;;;;;;;54.80;30.60;;;;;;;;;;103910;1289;545007;-75
2023/11/29 05:09:15;;;;;;;60.40;33.30;;;;;;;;;;103797;1291;545043;-75
2023/11/29 05:13:10;;;;;;;61.50;33.80;;;;;;;;;;103807;1292;545332;-74
2023/11/29 05:16:33;;;;;;;77.10;37.70;;;;;;;;;;103732;1290;545320;-75
2023/11/29 05:20:09;;;;;;;67.40;36.70;;;;;;;;;;104098;1289;545631;-75
2023/11/29 05:23:50;;;;;;;58.80;35.00;;;;;;;;;;103749;1292;545042;-75
2023/11/29 05:27:36;;;;;;;;;;;;;;;;;;;;;
2023/11/29 05:31:03;;;;;;;45.80;28.60;;;;;;;;;;103824;1289;545184;-76
2023/11/29 05:34:45;;;;;;;43.10;28.10;;;;;;;;;;103710;1292;545577;-76
2023/11/29 05:38:19;;;;;;;35.00;20.70;;;;;;;;;;103655;1291;547973;-76
2023/11/29 05:41:53;;;;;;;33.90;20.80;;;;;;;;;;103779;1301;544894;-75
2023/11/29 05:45:36;;;;;;;39.10;23.70;;;;;;;;;;104504;1283;545425;-75
2023/11/29 05:49:10;;;;;;;43.00;26.00;;;;;;;;;;103804;1292;546629;-76
2023/11/29 05:52:48;;;;;;;59.40;31.60;;;;;;;;;;103738;1291;545165;-78
2023/11/29 05:56:29;;;;;;;61.20;34.10;;;;;;;;;;103638;1292;545923;-75
2023/11/29 06:00:24;;;;;;;67.60;34.60;;;;;;;;;;103441;1294;544760;-76
2023/11/29 06:03:43;;;;;;;73.00;38.00;;;;;;;;;;103836;1291;545163;-78
2023/11/29 06:07:20;;;;;;;73.50;39.50;;;;;;;;;;103752;1291;544952;-74
2023/11/29 06:11:07;;;;;;;88.50;45.80;;;;;;;;;;103637;1292;548941;-75
2023/11/29 06:14:50;;;;;;;114.00;57.50;;;;;;;;;;103663;1292;545095;-75
2023/11/29 06:18:49;;;;;;;130.30;66.30;;;;;;;;;;103757;1289;545818;-75
2023/11/29 06:22:07;;;;;;;149.70;71.30;;;;;;;;;;103618;1292;545178;-75
2023/11/29 06:25:56;;;;;;;;;;;;;;;;;;;;;
2023/11/29 06:29:31;;;;;;;141.70;65.40;;;;;;;;;;103860;1302;545968;-75
2023/11/29 06:33:04;;;;;;;174.20;80.10;;;;;;;;;;103703;1289;548120;-75
2023/11/29 06:36:54;;;;;;;118.00;37.00;;;;;;;;;;103390;1296;545484;-77
2023/11/29 06:40:21;;;;;;;203.20;106.50;;;;;;;;;;103770;1292;545495;-75
2023/11/29 06:44:07;;;;;;;188.20;96.30;;;;;;;;;;103696;1291;548265;-76
2023/11/29 06:47:55;;;;;;;168.90;88.40;;;;;;;;;;103793;1288;545589;-75
2023/11/29 06:51:43;;;;;;;;;;;;;;;;;;;;;
2023/11/29 06:54:57;;;;;;;127.80;68.90;;;;;;;;;;104041;1289;545047;-75
2023/11/29 06:58:28;;;;;;;116.30;62.10;;;;;;;;;;104123;1288;545273;-75
2023/11/29 07:02:30;;;;;;;;;;;;;;;;;;;;;
2023/11/29 07:05:44;;;;;;;95.20;52.40;;;;;;;;;;103715;1292;545176;-75
2023/11/29 07:09:39;;;;;;;95.90;52.50;;;;;;;;;;103778;1290;546021;-76
2023/11/29 07:13:20;;;;;;;107.40;58.00;;;;;;;;;;103639;1291;545393;-76
2023/11/29 07:16:57;;;;;;;96.50;52.40;;;;;;;;;;103913;1292;545357;-74
2023/11/29 07:20:17;;;;;;;96.50;53.10;;;;;;;;;;103695;1295;544840;-75
2023/11/29 07:23:50;;;;;;;101.30;54.40;;;;;;;;;;103761;1292;545020;-76
2023/11/29 07:27:47;;;;;;;106.50;56.70;;;;;;;;;;103704;1291;545546;-75
2023/11/29 07:31:08;;;;;;;98.50;52.80;;;;;;;;;;103790;1292;544791;-75
2023/11/29 07:34:44;;;;;;;94.60;51.70;;;;;;;;;;103770;1290;544890;-76
2023/11/29 07:38:18;;;;;;;106.90;56.80;;;;;;;;;;103773;1290;544775;-75
2023/11/29 07:42:11;;;;;;;137.70;80.50;;;;;;;;;;103963;1286;545734;-75
2023/11/29 07:45:33;;;;;;;151.20;84.70;;;;;;;;;;103769;1291;546399;-75
2023/11/29 07:49:18;;;;;;;150.10;77.60;;;;;;;;;;103770;1292;544942;-76
2023/11/29 07:52:47;;;;;;;146.80;76.50;;;;;;;;;;103814;1292;545537;-75
2023/11/29 07:56:45;;;;;;;158.30;88.70;;;;;;;;;;103752;1291;545038;-76
2023/11/29 08:00:26;;;;;;;165.10;95.70;;;;;;;;;;103703;1292;545018;-77
2023/11/29 08:03:42;;;;;;;184.50;102.50;;;;;;;;;;103648;1292;545264;-75
2023/11/29 08:07:12;;;;;;;187.30;102.20;;;;;;;;;;104153;1289;545717;-78
2023/11/29 08:10:54;;;;;;;183.80;92.30;;;;;;;;;;103738;1294;544767;-76
2023/11/29 08:14:35;;;;;;;189.50;97.10;;;;;;;;;;103855;1291;545526;-76
2023/11/29 08:18:12;;;;;;;163.70;93.10;;;;;;;;;;103735;1302;545226;-77
2023/11/29 08:21:49;;;;;;;172.20;102.50;;;;;;;;;;103726;1292;545512;-77
2023/11/29 08:25:26;;;;;;;167.80;102.20;;;;;;;;;;103774;1289;545372;-77
2023/11/29 08:29:02;;;;;;;162.90;96.00;;;;;;;;;;103717;1303;545959;-77
2023/11/29 08:32:41;;;;;;;156.40;89.80;;;;;;;;;;103773;1292;546166;-75
2023/11/29 08:36:39;;;;;;;130.90;79.00;;;;;;;;;;103779;1291;545426;-75
2023/11/29 08:39:50;;;;;;;148.00;75.70;;;;;;;;;;103895;1296;544793;-76
2023/11/29 08:43:31;;;;;;;159.20;77.90;;;;;;;;;;103748;1291;544971;-75
2023/11/29 08:47:09;;;;;;;186.90;98.80;;;;;;;;;;103721;1294;544954;-74
2023/11/29 08:50:46;;;;;;;173.00;96.60;;;;;;;;;;103896;1292;544941;-75
2023/11/29 08:54:24;;;;;;;138.30;77.40;;;;;;;;;;103705;1291;545052;-76
2023/11/29 08:58:02;;;;;;;99.60;56.80;;;;;;;;;;103825;1289;545211;-75
2023/11/29 09:01:40;;;;;;;84.00;47.40;;;;;;;;;;103781;1289;545400;-75
2023/11/29 09:05:19;;;;;;;91.10;50.40;;;;;;;;;;103580;1291;544975;-75
2023/11/29 09:08:54;;;;;;;96.10;51.40;;;;;;;;;;103676;1289;545035;-75
2023/11/29 09:12:31;;;;;;;68.90;40.80;;;;;;;;;;103589;1295;544766;-75
2023/11/29 09:16:08;;;;;;;75.30;44.10;;;;;;;;;;103852;1291;545122;-74
2023/11/29 09:19:46;;;;;;;77.60;45.80;;;;;;;;;;103803;1291;545783;-74
2023/11/29 09:23:24;;;;;;;75.70;43.30;;;;;;;;;;104518;1282;544786;-75
2023/11/29 09:27:01;;;;;;;74.20;44.00;;;;;;;;;;103699;1301;545280;-74
2023/11/29 09:30:40;;;;;;;78.40;43.60;;;;;;;;;;103749;1289;544945;-74
2023/11/29 09:34:16;;;;;;;74.20;40.90;;;;;;;;;;103496;1295;545291;-76
2023/11/29 09:37:53;;;;;;;74.90;43.30;;;;;;;;;;103775;1292;544785;-74
2023/11/29 09:41:30;;;;;;;99.60;56.50;;;;;;;;;;104115;1289;545763;-74
2023/11/29 09:45:11;;;;;;;67.00;41.70;;;;;;;;;;103765;1291;544994;-75
2023/11/29 09:48:47;;;;;;;70.10;41.70;;;;;;;;;;103795;1292;544986;-75
2023/11/29 09:52:24;;;;;;;70.00;42.20;;;;;;;;;;103861;1291;544743;-76
2023/11/29 09:55:57;;;;;;;63.50;40.10;;;;;;;;;;103945;1289;546344;-75
2023/11/29 09:59:39;;;;;;;52.00;31.80;;;;;;;;;;103833;1289;544715;-75
2023/11/29 10:03:16;;;;;;;51.70;30.30;;;;;;;;;;103702;1293;545132;-74
2023/11/29 10:06:49;;;;;;;53.90;34.00;;;;;;;;;;103842;1292;544917;-75
2023/11/29 10:10:34;;;;;;;54.80;34.40;;;;;;;;;;103836;1289;544975;-75
2023/11/29 10:14:17;;;;;;;26.20;17.30;;;;;;;;;;103784;1292;544879;-76
2023/11/29 10:18:00;;;;;;;;;;;;;;;;;;;;;
2023/11/29 10:21:23;;;;;;;24.80;15.70;;;;;;;;;;103833;1290;544963;-76
2023/11/29 10:25:18;;;;;;;16.10;9.60;;;;;;;;;;103539;1295;548026;-79
2023/11/29 10:28:48;;;;;;;16.40;11.40;;;;;;;;;;103662;1292;549153;-80
2023/11/29 10:32:50;;;;;;;17.60;11.40;;;;;;;;;;103647;1291;549160;-80
2023/11/29 10:36:00;;;;;;;15.20;10.40;;;;;;;;;;103424;1295;548158;-80
2023/11/29 10:39:36;;;;;;;14.90;10.30;;;;;;;;;;103642;1292;545388;-79
2023/11/29 10:43:22;;;;;;;17.00;12.00;;;;;;;;;;103865;1297;545438;-81
2023/11/29 10:46:58;;;;;;;16.70;10.60;;;;;;;;;;104214;1288;548051;-78
2023/11/29 10:50:32;;;;;;;13.70;9.00;;;;;;;;;;103593;1295;547968;-76
2023/11/29 10:54:03;;;;;;;16.70;9.60;;;;;;;;;;103779;1289;545224;-77
2023/11/29 10:57:41;;;;;;;14.40;9.70;;;;;;;;;;103623;1301;545035;-77
2023/11/29 11:01:51;;;;;;;13.40;9.20;;;;;;;;;;103639;1294;545988;-80
2023/11/29 11:05:05;;;;;;;14.10;9.20;;;;;;;;;;103828;1289;547983;-85
2023/11/29 11:08:37;;;;;;;16.20;10.30;;;;;;;;;;103711;1292;548169;-88
2023/11/29 11:12:20;;;;;;;17.60;10.20;;;;;;;;;;103755;1289;544858;-84
2023/11/29 11:15:56;;;;;;;17.00;10.40;;;;;;;;;;103605;1290;547799;-78
2023/11/29 11:19:38;;;;;;;15.80;9.80;;;;;;;;;;103840;1295;549138;-79
2023/11/29 11:23:15;;;;;;;16.30;10.30;;;;;;;;;;103766;1292;550138;-77
2023/11/29 11:27:05;;;;;;;18.60;11.60;;;;;;;;;;103690;1295;547790;-78
2023/11/29 11:30:55;;;;;;;16.30;10.20;;;;;;;;;;103408;1294;547226;-82
2023/11/29 11:33:52;;;;;;;19.90;12.70;;;;;;;;;;103693;1290;545370;-83
2023/11/29 11:37:57;;;;;;;21.40;13.20;;;;;;;;;;104246;1291;545519;-85
2023/11/29 11:41:21;;;;;;;24.60;14.80;;;;;;;;;;104224;1288;545833;-90
2023/11/29 11:44:53;;;;;;;23.30;12.20;;;;;;;;;;103715;1291;549298;-80
2023/11/29 11:48:31;;;;;;;25.60;15.30;;;;;;;;;;103738;1292;545341;-86
2023/11/29 11:52:29;;;;;;;21.20;11.80;;;;;;;;;;104071;1288;547954;-89
2023/11/29 11:55:47;;;;;;;22.90;12.60;;;;;;;;;;104105;1293;548232;-77
2023/11/29 11:59:24;;;;;;;26.70;13.50;;;;;;;;;;104158;1294;547993;-85
2023/11/29 12:03:00;;;;;;;22.10;11.60;;;;;;;;;;104088;1292;545283;-80
2023/11/29 12:06:38;;;;;;;15.70;8.90;;;;;;;;;;104647;1288;545405;-79
2023/11/29 12:10:13;;;;;;;15.60;8.80;;;;;;;;;;104308;1288;545390;-83
2023/11/29 12:13:47;;;;;;;13.80;7.70;;;;;;;;;;103896;1294;547918;-78
2023/11/29 12:17:37;;;;;;;16.10;8.50;;;;;;;;;;104068;1294;547763;-79
2023/11/29 12:21:28;;;;;;;14.90;8.80;;;;;;;;;;104187;1292;545752;-82
2023/11/29 12:24:40;;;;;;;14.50;8.40;;;;;;;;;;104067;1289;547784;-79
2023/11/29 12:28:33;;;;;;;;;;;;;;;;;;;;;
2023/11/29 12:32:00;;;;;;;13.00;7.60;;;;;;;;;;104182;1292;547927;-80
2023/11/29 12:35:32;;;;;;;14.50;8.80;;;;;;;;;;104750;1285;546075;-79
2023/11/29 12:39:12;;;;;;;16.70;9.00;;;;;;;;;;104260;1292;546152;-79
2023/11/29 12:42:49;;;;;;;18.70;9.90;;;;;;;;;;104689;1286;548087;-80
2023/11/29 12:46:29;;;;;;;15.90;8.70;;;;;;;;;;103650;1292;547984;-87
2023/11/29 12:50:06;;;;;;;15.80;8.70;;;;;;;;;;103895;1291;548065;-80
2023/11/29 12:53:53;;;;;;;;;;;;;;;;;;;;;
2023/11/29 12:57:32;;;;;;;13.80;8.10;;;;;;;;;;103558;1291;547974;-88
2023/11/29 13:00:57;;;;;;;12.40;8.10;;;;;;;;;;103488;1297;547881;-88
2023/11/29 13:04:35;;;;;;;13.80;8.40;;;;;;;;;;103611;1291;547871;-79
2023/11/29 13:08:35;;;;;;;13.10;8.00;;;;;;;;;;103463;1297;545304;-86
2023/11/29 13:22:12;;;;;;;16.90;8.90;;;;;;;;;;104955;1281;555602;-87
2023/11/29 13:25:11;;;;;;;12.20;6.90;;;;;;;;;;103776;1291;548000;-79
2023/11/29 13:28:46;;;;;;;12.40;7.10;;;;;;;;;;103906;1292;548074;-87
2023/11/29 13:32:44;;;;;;;;;;;;;;;;;;;;;
2023/11/29 13:39:41;;;;;;;13.30;7.30;;;;;;;;;;104343;1286;548579;-76
2023/11/29 13:43:29;;;;;;;14.00;7.50;;;;;;;;;;103999;1291;546917;-79
2023/11/29 13:46:53;;;;;;;17.10;7.40;;;;;;;;;;103549;1291;548370;-77
2023/11/29 13:50:59;;;;;;;15.60;7.10;;;;;;;;;;103379;1291;545318;-86
2023/11/29 13:54:11;;;;;;;15.20;7.30;;;;;;;;;;103912;1291;545100;-79
2023/11/29 13:57:48;;;;;;;18.70;7.50;;;;;;;;;;103421;1296;547975;-78
2023/11/29 14:01:31;;;;;;;18.00;9.00;;;;;;;;;;103778;1291;545283;-78
2023/11/29 14:05:04;;;;;;;19.60;9.60;;;;;;;;;;103598;1292;548824;-79
2023/11/29 14:08:45;;;;;;;17.50;7.50;;;;;;;;;;103154;1308;545421;-77
2023/11/29 14:12:15;;;;;;;17.90;9.20;;;;;;;;;;103630;1289;544879;-76
2023/11/29 14:15:50;;;;;;;18.10;9.30;;;;;;;;;;103678;1291;545588;-79
2023/11/29 14:19:41;;;;;;;24.00;10.50;;;;;;;;;;103467;1295;548453;-76
2023/11/29 14:23:05;;;;;;;24.20;11.50;;;;;;;;;;104507;1286;545552;-77
2023/11/29 14:26:48;;;;;;;18.50;10.70;;;;;;;;;;103834;1289;546268;-76
2023/11/29 14:30:28;;;;;;;21.80;10.10;;;;;;;;;;103369;1293;548105;-79
2023/11/29 14:34:02;;;;;;;18.00;10.30;;;;;;;;;;103721;1289;545020;-79
2023/11/29 14:37:37;;;;;;;20.30;11.00;;;;;;;;;;103907;1286;545745;-83
2023/11/29 14:41:31;;;;;;;;;;;;;;;;;;;;;
2023/11/29 14:44:52;;;;;;;23.30;12.80;;;;;;;;;;104389;1288;545156;-78
2023/11/29 14:48:51;;;;;;;16.20;9.40;;;;;;;;;;103776;1302;545042;-79
2023/11/29 14:52:11;;;;;;;19.40;10.20;;;;;;;;;;104049;1289;545605;-78
2023/11/29 14:55:42;;;;;;;20.20;10.90;;;;;;;;;;103700;1290;545258;-74
2023/11/29 14:59:20;;;;;;;20.70;12.30;;;;;;;;;;103723;1292;544977;-77
2023/11/29 15:03:03;;;;;;;21.00;12.10;;;;;;;;;;103471;1295;547781;-79
2023/11/29 15:06:35;;;;;;;18.20;11.40;;;;;;;;;;103711;1289;545040;-74
2023/11/29 15:10:46;;;;;;;;;;;;;;;;;;;;;
2023/11/29 15:14:01;;;;;;;19.40;11.00;;;;;;;;;;103251;1294;546135;-89
2023/11/29 15:17:29;;;;;;;18.90;10.70;;;;;;;;;;103809;1295;544982;-79
2023/11/29 15:21:13;;;;;;;19.70;12.50;;;;;;;;;;104700;1283;545547;-78
2023/11/29 15:24:42;;;;;;;19.50;11.20;;;;;;;;;;103690;1291;545056;-77
2023/11/29 15:28:26;;;;;;;45.20;24.30;;;;;;;;;;104009;1292;547979;-88
2023/11/29 15:31:57;;;;;;;50.30;24.70;;;;;;;;;;104285;1286;544948;-77
2023/11/29 15:35:35;;;;;;;24.10;13.50;;;;;;;;;;103826;1289;545488;-82
2023/11/29 15:39:41;;;;;;;23.40;13.20;;;;;;;;;;103514;1292;548515;-82
2023/11/29 15:43:08;;;;;;;;;;;;;;;;;;;;;
2023/11/29 15:46:56;;;;;;;16.70;10.50;;;;;;;;;;103576;1294;545257;-90
2023/11/29 15:50:00;;;;;;;14.70;8.10;;;;;;;;;;103770;1287;545724;-77
2023/11/29 15:53:45;;;;;;;15.00;9.40;;;;;;;;;;103721;1294;544877;-76
2023/11/29 15:57:19;;;;;;;15.80;10.00;;;;;;;;;;103768;1303;544945;-75
2023/11/29 16:01:31;;;;;;;18.10;11.30;;;;;;;;;;103776;1296;545263;-80
2023/11/29 16:04:42;;;;;;;14.40;9.00;;;;;;;;;;103470;1292;546180;-80
2023/11/29 16:08:12;;;;;;;13.80;8.80;;;;;;;;;;103859;1292;544939;-75
2023/11/29 16:11:55;;;;;;;18.00;10.30;;;;;;;;;;103801;1288;544691;-78
2023/11/29 16:15:37;;;;;;;15.70;9.30;;;;;;;;;;103555;1289;548971;-76
2023/11/29 16:19:06;;;;;;;15.90;10.20;;;;;;;;;;103613;1291;545243;-77
2023/11/29 16:22:56;;;;;;;17.90;9.90;;;;;;;;;;103272;1294;547808;-76
2023/11/29 16:26:18;;;;;;;18.10;9.90;;;;;;;;;;103754;1292;546831;-80
2023/11/29 16:29:58;;;;;;;18.20;10.60;;;;;;;;;;103684;1296;545843;-76
2023/11/29 16:33:29;;;;;;;17.10;10.40;;;;;;;;;;103705;1295;545541;-74
2023/11/29 16:37:19;;;;;;;15.70;9.70;;;;;;;;;;104242;1289;548022;-83
2023/11/29 16:40:48;;;;;;;14.40;8.00;;;;;;;;;;104010;1285;545039;-76
2023/11/29 16:44:31;;;;;;;14.40;8.00;;;;;;;;;;103586;1292;545335;-79
2023/11/29 16:48:04;;;;;;;14.90;9.00;;;;;;;;;;103665;1288;545102;-75
2023/11/29 16:51:43;;;;;;;14.00;8.70;;;;;;;;;;103711;1291;546196;-79
2023/11/29 16:55:41;;;;;;;14.80;8.10;;;;;;;;;;104475;1283;549020;-82
2023/11/29 16:58:57;;;;;;;14.00;8.30;;;;;;;;;;103670;1288;544987;-76
2023/11/29 17:03:07;;;;;;;14.30;9.30;;;;;;;;;;103580;1293;548078;-75
2023/11/29 17:06:53;;;;;;;14.30;9.10;;;;;;;;;;103577;1292;545372;-73
2023/11/29 17:11:01;;;;;;;16.80;9.90;;;;;;;;;;103582;1291;544889;-81
2023/11/29 17:14:04;;;;;;;15.10;9.00;;;;;;;;;;103873;1291;544756;-79
2023/11/29 17:18:16;;;;;;;;;;;;;;;;;;;;;
2023/11/29 17:21:37;;;;;;;17.90;11.20;;;;;;;;;;103657;1297;545423;-84
2023/11/29 17:25:04;;;;;;;22.60;13.90;;;;;;;;;;104076;1289;545249;-78
2023/11/29 17:28:38;;;;;;;16.70;10.00;;;;;;;;;;103671;1292;546073;-81
2023/11/29 17:32:40;;;;;;;15.50;9.30;;;;;;;;;;103677;1297;549180;-78
2023/11/29 17:35:57;;;;;;;14.40;9.10;;;;;;;;;;103821;1295;545616;-76
2023/11/29 17:39:42;;;;;;;15.40;9.50;;;;;;;;;;103322;1300;545415;-77
2023/11/29 17:43:15;;;;;;;18.00;11.40;;;;;;;;;;103932;1293;546584;-83
2023/11/29 17:46:51;;;;;;;;;;;;;;;;;;;;;
2023/11/29 17:50:16;;;;;;;18.90;11.20;;;;;;;;;;104035;1290;546084;-76
2023/11/29 17:54:20;;;;;;;16.10;9.80;;;;;;;;;;103722;1291;549239;-86
2023/11/29 17:57:40;;;;;;;16.80;10.10;;;;;;;;;;103748;1293;548014;-78
2023/11/29 18:01:13;;;;;;;14.80;10.00;;;;;;;;;;103807;1295;545015;-76
2023/11/29 18:05:07;;;;;;;17.60;10.10;;;;;;;;;;103540;1301;548093;-75
2023/11/29 18:08:26;;;;;;;14.20;9.00;;;;;;;;;;103857;1292;544709;-76
2023/11/29 18:12:06;;;;;;;15.90;10.20;;;;;;;;;;104041;1294;546607;-77
2023/11/29 18:15:41;;;;;;;16.80;11.10;;;;;;;;;;103909;1291;545885;-77
2023/11/29 18:19:24;;;;;;;17.90;10.90;;;;;;;;;;103911;1291;545439;-76
2023/11/29 18:23:03;;;;;;;;;;;;;;;;;;;;;
2023/11/29 18:26:55;;;;;;;18.20;10.40;;;;;;;;;;103670;1291;545878;-76
2023/11/29 18:30:14;;;;;;;18.80;11.40;;;;;;;;;;103738;1292;544987;-78
2023/11/29 18:34:33;;;;;;;21.90;12.40;;;;;;;;;;104140;1292;546232;-76
2023/11/29 18:37:38;;;;;;;20.50;10.70;;;;;;;;;;103799;1290;545427;-77
2023/11/29 18:41:29;;;;;;;18.20;10.20;;;;;;;;;;103924;1295;548096;-76
2023/11/29 18:44:43;;;;;;;20.30;11.30;;;;;;;;;;103748;1294;545633;-84
2023/11/29 18:48:38;;;;;;;;;;;;;;;;;;;;;
2023/11/29 18:52:04;;;;;;;18.80;11.20;;;;;;;;;;103713;1297;547785;-80
2023/11/29 18:55:35;;;;;;;19.30;11.30;;;;;;;;;;103667;1291;544947;-75
2023/11/29 18:59:17;;;;;;;17.50;10.40;;;;;;;;;;103822;1292;547988;-76
2023/11/29 19:03:25;;;;;;;19.80;11.10;;;;;;;;;;103737;1297;545265;-85
2023/11/29 19:06:42;;;;;;;16.50;9.90;;;;;;;;;;103884;1290;545293;-78
2023/11/29 19:10:20;;;;;;;18.00;10.70;;;;;;;;;;103703;1296;546613;-85
2023/11/29 19:13:49;;;;;;;17.10;10.80;;;;;;;;;;104373;1288;547837;-79
2023/11/29 19:17:47;;;;;;;17.30;10.00;;;;;;;;;;103186;1297;546218;-76
2023/11/29 19:21:59;;;;;;;16.90;9.90;;;;;;;;;;104420;1292;548367;-75
2023/11/29 19:25:30;;;;;;;16.20;9.90;;;;;;;;;;103920;1292;545338;-77
2023/11/29 19:29:01;;;;;;;;;;;;;;;;;;;;;
2023/11/29 19:32:44;;;;;;;17.70;11.20;;;;;;;;;;103828;1292;545600;-76
2023/11/29 19:36:49;;;;;;;16.70;9.90;;;;;;;;;;104106;1291;545357;-77
2023/11/29 19:40:04;;;;;;;15.20;9.10;;;;;;;;;;103722;1292;545431;-72
2023/11/29 19:44:19;;;;;;;17.30;10.30;;;;;;;;;;104098;1294;545215;-76
2023/11/29 19:47:18;;;;;;;18.10;10.70;;;;;;;;;;104379;1289;547792;-76
2023/11/29 19:51:04;;;;;;;19.00;11.40;;;;;;;;;;104080;1294;547935;-76
2023/11/29 19:54:30;;;;;;;27.10;14.10;;;;;;;;;;103904;1292;545130;-79
2023/11/29 19:58:34;;;;;;;22.50;11.80;;;;;;;;;;103780;1298;547930;-76
2023/11/29 20:02:16;;;;;;;16.20;9.40;;;;;;;;;;104740;1285;545044;-76
2023/11/29 20:05:47;;;;;;;13.50;8.90;;;;;;;;;;104071;1289;545621;-75
2023/11/29 20:09:07;;;;;;;15.80;9.50;;;;;;;;;;104058;1292;547964;-76
2023/11/29 20:12:35;;;;;;;14.80;9.10;;;;;;;;;;103974;1294;545012;-85
2023/11/29 20:16:12;;;;;;;16.80;9.60;;;;;;;;;;104544;1289;544884;-75
2023/11/29 20:20:04;;;;;;;14.90;8.80;;;;;;;;;;104043;1289;544744;-75
2023/11/29 20:23:33;;;;;;;14.50;9.20;;;;;;;;;;103949;1295;546179;-76
2023/11/29 20:27:20;;;;;;;14.00;9.00;;;;;;;;;;103294;1296;545440;-79
2023/11/29 20:31:03;;;;;;;13.60;8.70;;;;;;;;;;103891;1292;547659;-85
2023/11/29 20:34:24;;;;;;;14.30;9.00;;;;;;;;;;103984;1289;545035;-76
2023/11/29 20:38:10;;;;;;;14.70;8.70;;;;;;;;;;103981;1302;545441;-83
2023/11/29 20:41:35;;;;;;;13.60;8.30;;;;;;;;;;104017;1292;545909;-77
2023/11/29 20:45:22;;;;;;;15.70;9.80;;;;;;;;;;104089;1289;546200;-76
2023/11/29 20:49:11;;;;;;;16.80;11.00;;;;;;;;;;103902;1291;545524;-75
2023/11/29 20:52:40;;;;;;;18.10;11.00;;;;;;;;;;104347;1291;544701;-76
2023/11/29 20:56:33;;;;;;;16.70;9.90;;;;;;;;;;103979;1292;546280;-75
2023/11/29 21:00:15;;;;;;;22.80;13.60;;;;;;;;;;104284;1295;546145;-74
2023/11/29 21:03:24;;;;;;;17.40;11.00;;;;;;;;;;104723;1288;544820;-76
2023/11/29 21:11:06;;;;;;;15.70;10.30;;;;;;;;;;103983;1292;547963;-85
2023/11/29 21:14:45;;;;;;;15.10;9.20;;;;;;;;;;104042;1291;549029;-76
2023/11/29 21:17:59;;;;;;;15.60;9.60;;;;;;;;;;104485;1290;545163;-76
2023/11/29 21:21:42;;;;;;;15.20;9.70;;;;;;;;;;103863;1295;549012;-76
2023/11/29 21:25:46;;;;;;;15.20;10.30;;;;;;;;;;103520;1295;545259;-76
2023/11/29 21:28:58;;;;;;;15.00;9.10;;;;;;;;;;104353;1291;545217;-77
2023/11/29 21:32:24;;;;;;;15.10;9.10;;;;;;;;;;104464;1289;544958;-76
2023/11/29 21:36:31;;;;;;;15.50;8.90;;;;;;;;;;104321;1291;547877;-75
2023/11/29 21:39:48;;;;;;;22.00;12.70;;;;;;;;;;103992;1297;547982;-77
2023/11/29 21:43:45;;;;;;;19.00;11.30;;;;;;;;;;104150;1292;545255;-75